sensor_id;sensor_type;location;lat;lon;timestamp;P1;durP1;ratioP1;P2;durP2;ratioP2
58338;SDS011;68636;52.704;6.536;2023-05-13T00:01:14;9.20;;;5.57;;
58338;SDS011;68636;52.704;6.536;2023-05-13T00:03:40;9.20;;;5.50;;
58338;SDS011;68636;52.704;6.536;2023-05-13T00:06:06;11.25;;;5.85;;
58338;SDS011;68636;52.704;6.536;2023-05-13T00:08:32;10.02;;;5.78;;
58338;SDS011;68636;52.704;6.536;2023-05-13T00:10:58;8.20;;;5.47;;
58338;SDS011;68636;52.704;6.536;2023-05-13T00:13:24;8.40;;;5.60;;
58338;SDS011;68636;52.704;6.536;2023-05-13T00:15:50;13.47;;;6.30;;
58338;SDS011;68636;52.704;6.536;2023-05-13T00:18:16;10.75;;;6.80;;
58338;SDS011;68636;52.704;6.536;2023-05-13T00:20:42;11.30;;;6.45;;
58338;SDS011;68636;52.704;6.536;2023-05-13T00:23:08;13.77;;;6.63;;
58338;SDS011;68636;52.704;6.536;2023-05-13T00:25:35;11.25;;;6.70;;
58338;SDS011;68636;52.704;6.536;2023-05-13T00:28:01;10.82;;;5.97;;
58338;SDS011;68636;52.704;6.536;2023-05-13T00:30:28;12.15;;;6.43;;
58338;SDS011;68636;52.704;6.536;2023-05-13T00:32:53;11.38;;;6.60;;
58338;SDS011;68636;52.704;6.536;2023-05-13T00:35:19;10.45;;;6.13;;
58338;SDS011;68636;52.704;6.536;2023-05-13T00:37:45;11.00;;;6.55;;
58338;SDS011;68636;52.704;6.536;2023-05-13T00:40:29;10.55;;;6.50;;
58338;SDS011;68636;52.704;6.536;2023-05-13T00:42:55;10.98;;;7.18;;
58338;SDS011;68636;52.704;6.536;2023-05-13T00:45:21;10.55;;;7.03;;
58338;SDS011;68636;52.704;6.536;2023-05-13T00:47:47;11.93;;;7.57;;
58338;SDS011;68636;52.704;6.536;2023-05-13T00:50:13;12.68;;;7.22;;
58338;SDS011;68636;52.704;6.536;2023-05-13T00:52:40;12.40;;;7.13;;
58338;SDS011;68636;52.704;6.536;2023-05-13T00:55:07;15.07;;;7.60;;
58338;SDS011;68636;52.704;6.536;2023-05-13T00:59:59;13.20;;;8.10;;
58338;SDS011;68636;52.704;6.536;2023-05-13T01:02:29;13.90;;;7.57;;
58338;SDS011;68636;52.704;6.536;2023-05-13T01:05:05;14.23;;;7.75;;
58338;SDS011;68636;52.704;6.536;2023-05-13T01:10:55;13.38;;;7.90;;
58338;SDS011;68636;52.704;6.536;2023-05-13T01:13:32;11.82;;;7.88;;
58338;SDS011;68636;52.704;6.536;2023-05-13T01:18:43;15.32;;;7.93;;
58338;SDS011;68636;52.704;6.536;2023-05-13T01:21:13;14.80;;;7.68;;
58338;SDS011;68636;52.704;6.536;2023-05-13T01:23:38;13.48;;;8.15;;
58338;SDS011;68636;52.704;6.536;2023-05-13T01:26:04;13.38;;;8.38;;
58338;SDS011;68636;52.704;6.536;2023-05-13T01:28:30;13.85;;;8.27;;
58338;SDS011;68636;52.704;6.536;2023-05-13T01:30:56;13.50;;;8.23;;
58338;SDS011;68636;52.704;6.536;2023-05-13T01:33:22;15.63;;;8.80;;
58338;SDS011;68636;52.704;6.536;2023-05-13T01:35:49;14.00;;;8.77;;
58338;SDS011;68636;52.704;6.536;2023-05-13T01:38:16;12.65;;;8.05;;
58338;SDS011;68636;52.704;6.536;2023-05-13T01:40:44;15.02;;;8.95;;
58338;SDS011;68636;52.704;6.536;2023-05-13T01:43:10;16.92;;;8.73;;
58338;SDS011;68636;52.704;6.536;2023-05-13T01:45:36;12.57;;;8.20;;
58338;SDS011;68636;52.704;6.536;2023-05-13T01:48:02;13.77;;;8.68;;
58338;SDS011;68636;52.704;6.536;2023-05-13T01:50:28;14.30;;;9.27;;
58338;SDS011;68636;52.704;6.536;2023-05-13T01:52:54;16.55;;;9.70;;
58338;SDS011;68636;52.704;6.536;2023-05-13T01:55:19;16.23;;;9.80;;
58338;SDS011;68636;52.704;6.536;2023-05-13T01:57:45;15.50;;;9.20;;
58338;SDS011;68636;52.704;6.536;2023-05-13T02:00:11;18.25;;;9.95;;
58338;SDS011;68636;52.704;6.536;2023-05-13T02:02:37;17.35;;;10.23;;
58338;SDS011;68636;52.704;6.536;2023-05-13T02:05:03;15.95;;;9.25;;
58338;SDS011;68636;52.704;6.536;2023-05-13T02:07:29;15.93;;;10.65;;
58338;SDS011;68636;52.704;6.536;2023-05-13T02:09:55;15.45;;;9.70;;
58338;SDS011;68636;52.704;6.536;2023-05-13T02:12:26;16.00;;;9.48;;
58338;SDS011;68636;52.704;6.536;2023-05-13T02:14:53;15.48;;;10.05;;
58338;SDS011;68636;52.704;6.536;2023-05-13T02:17:19;17.45;;;9.90;;
58338;SDS011;68636;52.704;6.536;2023-05-13T02:19:45;15.35;;;9.30;;
58338;SDS011;68636;52.704;6.536;2023-05-13T02:22:11;16.23;;;10.60;;
58338;SDS011;68636;52.704;6.536;2023-05-13T02:24:37;14.40;;;9.25;;
58338;SDS011;68636;52.704;6.536;2023-05-13T02:27:07;17.02;;;9.82;;
58338;SDS011;68636;52.704;6.536;2023-05-13T02:29:33;19.13;;;9.52;;
58338;SDS011;68636;52.704;6.536;2023-05-13T02:31:59;13.55;;;9.15;;
58338;SDS011;68636;52.704;6.536;2023-05-13T02:34:24;18.40;;;9.77;;
58338;SDS011;68636;52.704;6.536;2023-05-13T02:36:50;17.15;;;9.50;;
58338;SDS011;68636;52.704;6.536;2023-05-13T02:39:16;14.25;;;9.45;;
58338;SDS011;68636;52.704;6.536;2023-05-13T02:41:42;19.67;;;11.18;;
58338;SDS011;68636;52.704;6.536;2023-05-13T02:44:08;16.67;;;10.65;;
58338;SDS011;68636;52.704;6.536;2023-05-13T02:46:35;17.90;;;9.77;;
58338;SDS011;68636;52.704;6.536;2023-05-13T02:49:01;15.60;;;9.88;;
58338;SDS011;68636;52.704;6.536;2023-05-13T02:51:26;20.30;;;11.18;;
58338;SDS011;68636;52.704;6.536;2023-05-13T02:53:52;17.75;;;10.00;;
58338;SDS011;68636;52.704;6.536;2023-05-13T02:56:18;15.88;;;10.35;;
58338;SDS011;68636;52.704;6.536;2023-05-13T02:58:43;20.92;;;11.48;;
58338;SDS011;68636;52.704;6.536;2023-05-13T03:01:09;17.90;;;10.75;;
58338;SDS011;68636;52.704;6.536;2023-05-13T03:03:35;18.10;;;10.73;;
58338;SDS011;68636;52.704;6.536;2023-05-13T03:06:01;18.25;;;10.05;;
58338;SDS011;68636;52.704;6.536;2023-05-13T03:08:26;19.67;;;10.35;;
58338;SDS011;68636;52.704;6.536;2023-05-13T03:10:52;19.15;;;11.20;;
58338;SDS011;68636;52.704;6.536;2023-05-13T03:13:18;19.88;;;11.13;;
58338;SDS011;68636;52.704;6.536;2023-05-13T03:15:44;23.02;;;11.57;;
58338;SDS011;68636;52.704;6.536;2023-05-13T03:18:09;19.17;;;10.80;;
58338;SDS011;68636;52.704;6.536;2023-05-13T03:20:35;15.88;;;10.50;;
58338;SDS011;68636;52.704;6.536;2023-05-13T03:23:01;17.73;;;11.80;;
58338;SDS011;68636;52.704;6.536;2023-05-13T03:25:28;20.30;;;10.35;;
58338;SDS011;68636;52.704;6.536;2023-05-13T03:27:54;21.13;;;11.02;;
58338;SDS011;68636;52.704;6.536;2023-05-13T03:30:19;19.42;;;12.10;;
58338;SDS011;68636;52.704;6.536;2023-05-13T03:32:45;21.70;;;11.07;;
58338;SDS011;68636;52.704;6.536;2023-05-13T03:35:11;20.30;;;13.52;;
58338;SDS011;68636;52.704;6.536;2023-05-13T03:37:37;25.23;;;11.32;;
58338;SDS011;68636;52.704;6.536;2023-05-13T03:40:02;19.33;;;11.60;;
58338;SDS011;68636;52.704;6.536;2023-05-13T03:42:28;19.52;;;11.27;;
58338;SDS011;68636;52.704;6.536;2023-05-13T03:44:54;21.92;;;12.07;;
58338;SDS011;68636;52.704;6.536;2023-05-13T03:47:21;18.83;;;11.43;;
58338;SDS011;68636;52.704;6.536;2023-05-13T03:49:47;17.27;;;11.93;;
58338;SDS011;68636;52.704;6.536;2023-05-13T03:52:14;20.05;;;11.77;;
58338;SDS011;68636;52.704;6.536;2023-05-13T03:54:40;21.30;;;11.75;;
58338;SDS011;68636;52.704;6.536;2023-05-13T03:57:06;20.02;;;10.98;;
58338;SDS011;68636;52.704;6.536;2023-05-13T03:59:32;19.30;;;12.45;;
58338;SDS011;68636;52.704;6.536;2023-05-13T04:01:58;18.00;;;11.95;;
58338;SDS011;68636;52.704;6.536;2023-05-13T04:04:24;17.88;;;12.48;;
58338;SDS011;68636;52.704;6.536;2023-05-13T04:06:50;22.67;;;12.27;;
58338;SDS011;68636;52.704;6.536;2023-05-13T04:09:15;24.23;;;13.48;;
58338;SDS011;68636;52.704;6.536;2023-05-13T04:11:41;23.02;;;12.55;;
58338;SDS011;68636;52.704;6.536;2023-05-13T04:14:07;22.67;;;12.15;;
58338;SDS011;68636;52.704;6.536;2023-05-13T04:16:32;20.50;;;13.00;;
58338;SDS011;68636;52.704;6.536;2023-05-13T04:18:58;20.73;;;12.30;;
58338;SDS011;68636;52.704;6.536;2023-05-13T04:21:24;20.60;;;12.63;;
58338;SDS011;68636;52.704;6.536;2023-05-13T04:23:50;19.88;;;11.90;;
58338;SDS011;68636;52.704;6.536;2023-05-13T04:26:15;22.80;;;12.60;;
58338;SDS011;68636;52.704;6.536;2023-05-13T04:28:41;20.83;;;12.27;;
58338;SDS011;68636;52.704;6.536;2023-05-13T04:31:07;17.95;;;12.77;;
58338;SDS011;68636;52.704;6.536;2023-05-13T04:33:32;20.98;;;12.65;;
58338;SDS011;68636;52.704;6.536;2023-05-13T04:35:58;23.58;;;12.68;;
58338;SDS011;68636;52.704;6.536;2023-05-13T04:38:24;21.48;;;12.95;;
58338;SDS011;68636;52.704;6.536;2023-05-13T04:40:50;20.35;;;12.45;;
58338;SDS011;68636;52.704;6.536;2023-05-13T04:43:16;20.95;;;14.32;;
58338;SDS011;68636;52.704;6.536;2023-05-13T04:45:42;21.65;;;12.07;;
58338;SDS011;68636;52.704;6.536;2023-05-13T04:48:07;22.85;;;13.48;;
58338;SDS011;68636;52.704;6.536;2023-05-13T04:50:33;20.48;;;13.02;;
58338;SDS011;68636;52.704;6.536;2023-05-13T04:52:59;20.65;;;12.57;;
58338;SDS011;68636;52.704;6.536;2023-05-13T04:55:24;22.00;;;12.90;;
58338;SDS011;68636;52.704;6.536;2023-05-13T04:57:50;23.23;;;14.43;;
58338;SDS011;68636;52.704;6.536;2023-05-13T05:00:16;21.85;;;14.80;;
58338;SDS011;68636;52.704;6.536;2023-05-13T05:02:43;20.17;;;13.30;;
58338;SDS011;68636;52.704;6.536;2023-05-13T05:05:09;22.58;;;13.95;;
58338;SDS011;68636;52.704;6.536;2023-05-13T05:07:34;22.65;;;14.88;;
58338;SDS011;68636;52.704;6.536;2023-05-13T05:10:05;23.83;;;15.10;;
58338;SDS011;68636;52.704;6.536;2023-05-13T05:12:31;24.00;;;13.32;;
58338;SDS011;68636;52.704;6.536;2023-05-13T05:14:57;24.88;;;15.77;;
58338;SDS011;68636;52.704;6.536;2023-05-13T05:17:23;25.67;;;15.98;;
58338;SDS011;68636;52.704;6.536;2023-05-13T05:19:49;24.05;;;14.32;;
58338;SDS011;68636;52.704;6.536;2023-05-13T05:22:14;27.08;;;16.42;;
58338;SDS011;68636;52.704;6.536;2023-05-13T05:24:40;31.73;;;17.02;;
58338;SDS011;68636;52.704;6.536;2023-05-13T05:27:06;27.00;;;14.48;;
58338;SDS011;68636;52.704;6.536;2023-05-13T05:29:31;32.05;;;15.15;;
58338;SDS011;68636;52.704;6.536;2023-05-13T05:31:57;21.60;;;14.35;;
58338;SDS011;68636;52.704;6.536;2023-05-13T05:34:23;24.80;;;15.90;;
58338;SDS011;68636;52.704;6.536;2023-05-13T05:36:49;26.63;;;13.77;;
58338;SDS011;68636;52.704;6.536;2023-05-13T05:39:14;27.48;;;15.57;;
58338;SDS011;68636;52.704;6.536;2023-05-13T05:41:40;23.15;;;13.85;;
58338;SDS011;68636;52.704;6.536;2023-05-13T05:44:06;25.15;;;15.25;;
58338;SDS011;68636;52.704;6.536;2023-05-13T05:46:32;23.50;;;13.27;;
58338;SDS011;68636;52.704;6.536;2023-05-13T05:48:57;22.17;;;13.75;;
58338;SDS011;68636;52.704;6.536;2023-05-13T05:51:23;24.55;;;13.65;;
58338;SDS011;68636;52.704;6.536;2023-05-13T05:53:49;25.95;;;15.93;;
58338;SDS011;68636;52.704;6.536;2023-05-13T05:56:15;28.10;;;15.27;;
58338;SDS011;68636;52.704;6.536;2023-05-13T05:58:40;23.50;;;14.77;;
58338;SDS011;68636;52.704;6.536;2023-05-13T06:01:06;27.05;;;14.60;;
58338;SDS011;68636;52.704;6.536;2023-05-13T06:03:32;28.27;;;14.00;;
58338;SDS011;68636;52.704;6.536;2023-05-13T06:05:57;25.83;;;15.35;;
58338;SDS011;68636;52.704;6.536;2023-05-13T06:08:23;25.05;;;16.83;;
58338;SDS011;68636;52.704;6.536;2023-05-13T06:10:54;26.08;;;14.43;;
58338;SDS011;68636;52.704;6.536;2023-05-13T06:13:21;20.95;;;14.63;;
58338;SDS011;68636;52.704;6.536;2023-05-13T06:15:47;27.80;;;14.68;;
58338;SDS011;68636;52.704;6.536;2023-05-13T06:18:12;20.80;;;13.00;;
58338;SDS011;68636;52.704;6.536;2023-05-13T06:20:38;22.30;;;14.88;;
58338;SDS011;68636;52.704;6.536;2023-05-13T06:23:05;28.87;;;15.13;;
58338;SDS011;68636;52.704;6.536;2023-05-13T06:25:31;21.63;;;13.80;;
58338;SDS011;68636;52.704;6.536;2023-05-13T06:27:57;20.65;;;12.98;;
58338;SDS011;68636;52.704;6.536;2023-05-13T06:30:22;22.77;;;13.95;;
58338;SDS011;68636;52.704;6.536;2023-05-13T06:32:48;24.55;;;14.05;;
58338;SDS011;68636;52.704;6.536;2023-05-13T06:35:14;20.55;;;12.25;;
58338;SDS011;68636;52.704;6.536;2023-05-13T06:37:40;20.75;;;13.77;;
58338;SDS011;68636;52.704;6.536;2023-05-13T06:40:06;21.75;;;13.95;;
58338;SDS011;68636;52.704;6.536;2023-05-13T06:42:32;20.83;;;12.60;;
58338;SDS011;68636;52.704;6.536;2023-05-13T06:45:00;23.13;;;12.48;;
58338;SDS011;68636;52.704;6.536;2023-05-13T06:47:26;20.40;;;12.65;;
58338;SDS011;68636;52.704;6.536;2023-05-13T06:49:51;20.17;;;12.23;;
58338;SDS011;68636;52.704;6.536;2023-05-13T06:52:17;19.00;;;12.50;;
58338;SDS011;68636;52.704;6.536;2023-05-13T06:54:43;22.20;;;12.18;;
58338;SDS011;68636;52.704;6.536;2023-05-13T06:57:09;26.23;;;12.13;;
58338;SDS011;68636;52.704;6.536;2023-05-13T06:59:34;21.95;;;12.02;;
58338;SDS011;68636;52.704;6.536;2023-05-13T07:02:00;19.27;;;12.68;;
58338;SDS011;68636;52.704;6.536;2023-05-13T07:04:26;19.42;;;12.52;;
58338;SDS011;68636;52.704;6.536;2023-05-13T07:06:54;22.02;;;11.68;;
58338;SDS011;68636;52.704;6.536;2023-05-13T07:09:21;20.17;;;11.32;;
58338;SDS011;68636;52.704;6.536;2023-05-13T07:11:46;21.75;;;11.85;;
58338;SDS011;68636;52.704;6.536;2023-05-13T07:14:12;19.15;;;12.75;;
58338;SDS011;68636;52.704;6.536;2023-05-13T07:16:38;17.50;;;11.38;;
58338;SDS011;68636;52.704;6.536;2023-05-13T07:19:03;19.05;;;12.10;;
58338;SDS011;68636;52.704;6.536;2023-05-13T07:21:29;16.75;;;11.05;;
58338;SDS011;68636;52.704;6.536;2023-05-13T07:23:55;18.90;;;11.40;;
58338;SDS011;68636;52.704;6.536;2023-05-13T07:26:21;16.33;;;11.23;;
58338;SDS011;68636;52.704;6.536;2023-05-13T07:28:46;17.30;;;11.05;;
58338;SDS011;68636;52.704;6.536;2023-05-13T07:31:12;22.85;;;12.70;;
58338;SDS011;68636;52.704;6.536;2023-05-13T07:33:38;17.85;;;11.02;;
58338;SDS011;68636;52.704;6.536;2023-05-13T07:36:04;18.70;;;11.52;;
58338;SDS011;68636;52.704;6.536;2023-05-13T07:38:30;15.85;;;10.13;;
58338;SDS011;68636;52.704;6.536;2023-05-13T07:40:56;16.35;;;10.43;;
58338;SDS011;68636;52.704;6.536;2023-05-13T07:43:22;19.60;;;11.18;;
58338;SDS011;68636;52.704;6.536;2023-05-13T07:45:50;15.70;;;10.77;;
58338;SDS011;68636;52.704;6.536;2023-05-13T07:48:16;16.45;;;10.23;;
58338;SDS011;68636;52.704;6.536;2023-05-13T07:50:45;16.83;;;10.90;;
58338;SDS011;68636;52.704;6.536;2023-05-13T07:53:11;16.52;;;10.38;;
58338;SDS011;68636;52.704;6.536;2023-05-13T07:55:37;15.75;;;10.13;;
58338;SDS011;68636;52.704;6.536;2023-05-13T07:58:03;16.58;;;10.02;;
58338;SDS011;68636;52.704;6.536;2023-05-13T08:00:30;14.88;;;9.35;;
58338;SDS011;68636;52.704;6.536;2023-05-13T08:02:56;16.23;;;9.82;;
58338;SDS011;68636;52.704;6.536;2023-05-13T08:05:21;16.20;;;9.15;;
58338;SDS011;68636;52.704;6.536;2023-05-13T08:07:47;13.82;;;9.50;;
58338;SDS011;68636;52.704;6.536;2023-05-13T08:10:15;14.48;;;9.27;;
58338;SDS011;68636;52.704;6.536;2023-05-13T08:12:41;16.00;;;8.50;;
58338;SDS011;68636;52.704;6.536;2023-05-13T08:15:07;14.90;;;9.05;;
58338;SDS011;68636;52.704;6.536;2023-05-13T08:17:36;12.27;;;7.90;;
58338;SDS011;68636;52.704;6.536;2023-05-13T08:20:01;14.05;;;8.98;;
58338;SDS011;68636;52.704;6.536;2023-05-13T08:22:27;15.43;;;8.60;;
58338;SDS011;68636;52.704;6.536;2023-05-13T08:24:53;13.73;;;8.65;;
58338;SDS011;68636;52.704;6.536;2023-05-13T08:27:19;17.15;;;8.48;;
58338;SDS011;68636;52.704;6.536;2023-05-13T08:29:44;16.95;;;8.70;;
58338;SDS011;68636;52.704;6.536;2023-05-13T08:32:10;16.20;;;8.43;;
58338;SDS011;68636;52.704;6.536;2023-05-13T08:34:36;13.57;;;8.53;;
58338;SDS011;68636;52.704;6.536;2023-05-13T08:37:02;11.90;;;8.32;;
58338;SDS011;68636;52.704;6.536;2023-05-13T08:39:27;13.23;;;8.10;;
58338;SDS011;68636;52.704;6.536;2023-05-13T08:41:54;12.97;;;8.03;;
58338;SDS011;68636;52.704;6.536;2023-05-13T08:44:24;14.77;;;8.38;;
58338;SDS011;68636;52.704;6.536;2023-05-13T08:47:40;12.82;;;8.48;;
58338;SDS011;68636;52.704;6.536;2023-05-13T08:49:56;11.48;;;7.40;;
58338;SDS011;68636;52.704;6.536;2023-05-13T08:52:22;11.53;;;7.17;;
58338;SDS011;68636;52.704;6.536;2023-05-13T08:54:50;11.57;;;7.38;;
58338;SDS011;68636;52.704;6.536;2023-05-13T08:59:44;12.13;;;7.40;;
58338;SDS011;68636;52.704;6.536;2023-05-13T09:02:11;16.02;;;8.60;;
58338;SDS011;68636;52.704;6.536;2023-05-13T09:04:38;16.88;;;9.05;;
58338;SDS011;68636;52.704;6.536;2023-05-13T09:07:07;17.23;;;7.00;;
58338;SDS011;68636;52.704;6.536;2023-05-13T09:09:35;14.55;;;7.80;;
58338;SDS011;68636;52.704;6.536;2023-05-13T09:12:02;16.63;;;8.15;;
58338;SDS011;68636;52.704;6.536;2023-05-13T09:14:30;13.98;;;7.07;;
58338;SDS011;68636;52.704;6.536;2023-05-13T09:17:00;15.23;;;6.55;;
58338;SDS011;68636;52.704;6.536;2023-05-13T09:19:26;11.98;;;6.15;;
58338;SDS011;68636;52.704;6.536;2023-05-13T09:21:52;10.30;;;6.17;;
58338;SDS011;68636;52.704;6.536;2023-05-13T09:24:18;10.50;;;5.50;;
58338;SDS011;68636;52.704;6.536;2023-05-13T09:26:46;11.00;;;6.10;;
58338;SDS011;68636;52.704;6.536;2023-05-13T09:34:05;10.05;;;5.55;;
58338;SDS011;68636;52.704;6.536;2023-05-13T09:36:30;11.83;;;5.50;;
58338;SDS011;68636;52.704;6.536;2023-05-13T09:38:57;13.90;;;6.00;;
58338;SDS011;68636;52.704;6.536;2023-05-13T09:43:52;13.40;;;5.85;;
58338;SDS011;68636;52.704;6.536;2023-05-13T09:46:19;9.27;;;5.67;;
58338;SDS011;68636;52.704;6.536;2023-05-13T09:48:45;15.35;;;5.20;;
58338;SDS011;68636;52.704;6.536;2023-05-13T09:51:11;9.10;;;5.10;;
58338;SDS011;68636;52.704;6.536;2023-05-13T09:53:39;11.90;;;5.75;;
58338;SDS011;68636;52.704;6.536;2023-05-13T09:56:07;14.38;;;5.78;;
58338;SDS011;68636;52.704;6.536;2023-05-13T09:58:34;10.25;;;5.03;;
58338;SDS011;68636;52.704;6.536;2023-05-13T10:01:00;11.37;;;5.90;;
58338;SDS011;68636;52.704;6.536;2023-05-13T10:03:27;8.57;;;5.25;;
58338;SDS011;68636;52.704;6.536;2023-05-13T10:05:53;9.85;;;4.82;;
58338;SDS011;68636;52.704;6.536;2023-05-13T10:10:46;12.83;;;5.70;;
58338;SDS011;68636;52.704;6.536;2023-05-13T10:13:14;10.55;;;5.05;;
58338;SDS011;68636;52.704;6.536;2023-05-13T10:15:48;11.80;;;5.00;;
58338;SDS011;68636;52.704;6.536;2023-05-13T10:18:16;6.47;;;4.10;;
58338;SDS011;68636;52.704;6.536;2023-05-13T10:23:08;9.88;;;4.35;;
58338;SDS011;68636;52.704;6.536;2023-05-13T10:28:04;9.77;;;3.67;;
58338;SDS011;68636;52.704;6.536;2023-05-13T10:30:30;14.75;;;4.28;;
58338;SDS011;68636;52.704;6.536;2023-05-13T10:35:25;7.28;;;3.83;;
58338;SDS011;68636;52.704;6.536;2023-05-13T10:38:07;13.07;;;4.38;;
58338;SDS011;68636;52.704;6.536;2023-05-13T10:40:58;11.10;;;4.28;;
58338;SDS011;68636;52.704;6.536;2023-05-13T10:43:47;8.63;;;3.00;;
58338;SDS011;68636;52.704;6.536;2023-05-13T10:46:23;6.72;;;3.03;;
58338;SDS011;68636;52.704;6.536;2023-05-13T10:48:49;6.25;;;2.72;;
58338;SDS011;68636;52.704;6.536;2023-05-13T10:51:21;7.38;;;3.00;;
58338;SDS011;68636;52.704;6.536;2023-05-13T10:53:55;8.65;;;3.65;;
58338;SDS011;68636;52.704;6.536;2023-05-13T10:56:25;12.43;;;2.95;;
58338;SDS011;68636;52.704;6.536;2023-05-13T10:58:56;11.13;;;3.33;;
58338;SDS011;68636;52.704;6.536;2023-05-13T11:01:33;10.73;;;3.10;;
58338;SDS011;68636;52.704;6.536;2023-05-13T11:04:02;11.18;;;2.92;;
58338;SDS011;68636;52.704;6.536;2023-05-13T11:08:54;6.93;;;2.50;;
58338;SDS011;68636;52.704;6.536;2023-05-13T11:13:49;5.28;;;2.30;;
58338;SDS011;68636;52.704;6.536;2023-05-13T11:16:19;6.32;;;2.58;;
58338;SDS011;68636;52.704;6.536;2023-05-13T11:18:46;12.10;;;2.65;;
58338;SDS011;68636;52.704;6.536;2023-05-13T11:21:13;8.07;;;2.30;;
58338;SDS011;68636;52.704;6.536;2023-05-13T11:23:51;4.77;;;2.27;;
58338;SDS011;68636;52.704;6.536;2023-05-13T11:26:21;9.63;;;3.28;;
58338;SDS011;68636;52.704;6.536;2023-05-13T11:28:54;9.73;;;2.97;;
58338;SDS011;68636;52.704;6.536;2023-05-13T11:34:12;8.63;;;3.22;;
58338;SDS011;68636;52.704;6.536;2023-05-13T11:36:40;8.68;;;3.22;;
58338;SDS011;68636;52.704;6.536;2023-05-13T11:39:09;6.65;;;2.70;;
58338;SDS011;68636;52.704;6.536;2023-05-13T11:41:40;9.35;;;3.00;;
58338;SDS011;68636;52.704;6.536;2023-05-13T11:44:28;8.35;;;2.58;;
58338;SDS011;68636;52.704;6.536;2023-05-13T11:46:58;8.47;;;2.40;;
58338;SDS011;68636;52.704;6.536;2023-05-13T11:59:56;7.80;;;3.08;;
58338;SDS011;68636;52.704;6.536;2023-05-13T12:05:05;5.38;;;2.45;;
58338;SDS011;68636;52.704;6.536;2023-05-13T12:07:33;7.38;;;2.90;;
58338;SDS011;68636;52.704;6.536;2023-05-13T12:10:00;8.38;;;2.83;;
58338;SDS011;68636;52.704;6.536;2023-05-13T12:12:28;8.82;;;2.63;;
58338;SDS011;68636;52.704;6.536;2023-05-13T12:14:57;11.45;;;2.50;;
58338;SDS011;68636;52.704;6.536;2023-05-13T12:17:24;6.55;;;2.38;;
58338;SDS011;68636;52.704;6.536;2023-05-13T12:22:50;4.43;;;2.17;;
58338;SDS011;68636;52.704;6.536;2023-05-13T12:30:35;5.57;;;2.10;;
58338;SDS011;68636;52.704;6.536;2023-05-13T12:33:03;8.50;;;2.63;;
58338;SDS011;68636;52.704;6.536;2023-05-13T12:35:29;5.80;;;2.50;;
58338;SDS011;68636;52.704;6.536;2023-05-13T12:38:02;9.18;;;2.60;;
58338;SDS011;68636;52.704;6.536;2023-05-13T12:40:29;4.72;;;2.40;;
58338;SDS011;68636;52.704;6.536;2023-05-13T12:42:58;7.22;;;2.30;;
58338;SDS011;68636;52.704;6.536;2023-05-13T12:45:28;11.18;;;2.60;;
58338;SDS011;68636;52.704;6.536;2023-05-13T12:47:55;7.43;;;2.20;;
58338;SDS011;68636;52.704;6.536;2023-05-13T12:50:22;4.75;;;2.30;;
58338;SDS011;68636;52.704;6.536;2023-05-13T12:52:48;5.70;;;2.88;;
58338;SDS011;68636;52.704;6.536;2023-05-13T12:55:14;4.68;;;2.17;;
58338;SDS011;68636;52.704;6.536;2023-05-13T12:57:41;7.05;;;2.47;;
58338;SDS011;68636;52.704;6.536;2023-05-13T13:00:07;6.10;;;2.28;;
58338;SDS011;68636;52.704;6.536;2023-05-13T13:02:34;3.80;;;1.80;;
58338;SDS011;68636;52.704;6.536;2023-05-13T13:07:27;6.15;;;2.13;;
58338;SDS011;68636;52.704;6.536;2023-05-13T13:09:53;5.87;;;2.50;;
58338;SDS011;68636;52.704;6.536;2023-05-13T13:12:19;9.57;;;2.45;;
58338;SDS011;68636;52.704;6.536;2023-05-13T13:14:45;6.77;;;2.10;;
58338;SDS011;68636;52.704;6.536;2023-05-13T13:17:11;5.60;;;2.00;;
58338;SDS011;68636;52.704;6.536;2023-05-13T13:19:36;6.57;;;2.50;;
58338;SDS011;68636;52.704;6.536;2023-05-13T13:22:02;8.20;;;2.30;;
58338;SDS011;68636;52.704;6.536;2023-05-13T13:24:28;8.30;;;2.70;;
58338;SDS011;68636;52.704;6.536;2023-05-13T13:26:54;6.97;;;2.50;;
58338;SDS011;68636;52.704;6.536;2023-05-13T13:29:20;8.63;;;2.20;;
58338;SDS011;68636;52.704;6.536;2023-05-13T13:31:46;4.00;;;2.10;;
58338;SDS011;68636;52.704;6.536;2023-05-13T13:34:11;8.37;;;2.50;;
58338;SDS011;68636;52.704;6.536;2023-05-13T13:36:37;4.13;;;2.10;;
58338;SDS011;68636;52.704;6.536;2023-05-13T13:39:03;7.32;;;2.30;;
58338;SDS011;68636;52.704;6.536;2023-05-13T13:41:29;9.15;;;2.15;;
58338;SDS011;68636;52.704;6.536;2023-05-13T13:43:55;10.20;;;2.47;;
58338;SDS011;68636;52.704;6.536;2023-05-13T13:46:21;6.57;;;2.27;;
58338;SDS011;68636;52.704;6.536;2023-05-13T13:48:46;6.50;;;1.97;;
58338;SDS011;68636;52.704;6.536;2023-05-13T13:51:12;7.80;;;2.07;;
58338;SDS011;68636;52.704;6.536;2023-05-13T13:53:38;7.77;;;1.90;;
58338;SDS011;68636;52.704;6.536;2023-05-13T13:56:04;6.20;;;2.23;;
58338;SDS011;68636;52.704;6.536;2023-05-13T13:58:30;6.43;;;2.00;;
58338;SDS011;68636;52.704;6.536;2023-05-13T14:00:56;6.37;;;2.17;;
58338;SDS011;68636;52.704;6.536;2023-05-13T14:03:21;3.90;;;1.63;;
58338;SDS011;68636;52.704;6.536;2023-05-13T14:05:47;5.20;;;1.70;;
58338;SDS011;68636;52.704;6.536;2023-05-13T14:08:13;8.07;;;2.10;;
58338;SDS011;68636;52.704;6.536;2023-05-13T14:10:39;6.27;;;1.80;;
58338;SDS011;68636;52.704;6.536;2023-05-13T14:13:05;4.43;;;2.03;;
58338;SDS011;68636;52.704;6.536;2023-05-13T14:15:30;4.30;;;1.77;;
58338;SDS011;68636;52.704;6.536;2023-05-13T14:17:56;6.70;;;2.10;;
58338;SDS011;68636;52.704;6.536;2023-05-13T14:20:22;6.45;;;1.88;;
58338;SDS011;68636;52.704;6.536;2023-05-13T14:22:49;5.85;;;1.52;;
58338;SDS011;68636;52.704;6.536;2023-05-13T14:25:15;5.03;;;1.83;;
58338;SDS011;68636;52.704;6.536;2023-05-13T14:27:40;4.87;;;1.57;;
58338;SDS011;68636;52.704;6.536;2023-05-13T14:30:06;4.13;;;1.87;;
58338;SDS011;68636;52.704;6.536;2023-05-13T14:32:33;8.13;;;2.30;;
58338;SDS011;68636;52.704;6.536;2023-05-13T14:34:58;7.75;;;2.33;;
58338;SDS011;68636;52.704;6.536;2023-05-13T14:37:24;7.30;;;2.47;;
58338;SDS011;68636;52.704;6.536;2023-05-13T14:39:50;8.23;;;2.37;;
58338;SDS011;68636;52.704;6.536;2023-05-13T14:42:16;11.37;;;2.37;;
58338;SDS011;68636;52.704;6.536;2023-05-13T14:44:42;8.43;;;2.33;;
58338;SDS011;68636;52.704;6.536;2023-05-13T14:47:08;5.37;;;2.50;;
58338;SDS011;68636;52.704;6.536;2023-05-13T14:49:34;6.93;;;2.03;;
58338;SDS011;68636;52.704;6.536;2023-05-13T14:52:00;5.70;;;2.00;;
58338;SDS011;68636;52.704;6.536;2023-05-13T14:54:25;6.30;;;2.30;;
58338;SDS011;68636;52.704;6.536;2023-05-13T14:56:51;7.17;;;2.77;;
58338;SDS011;68636;52.704;6.536;2023-05-13T14:59:17;7.13;;;2.03;;
58338;SDS011;68636;52.704;6.536;2023-05-13T15:01:43;7.20;;;2.50;;
58338;SDS011;68636;52.704;6.536;2023-05-13T15:04:09;7.95;;;2.20;;
58338;SDS011;68636;52.704;6.536;2023-05-13T15:06:35;6.97;;;1.90;;
58338;SDS011;68636;52.704;6.536;2023-05-13T15:09:02;5.90;;;2.10;;
58338;SDS011;68636;52.704;6.536;2023-05-13T15:11:28;7.07;;;2.13;;
58338;SDS011;68636;52.704;6.536;2023-05-13T15:13:54;8.52;;;1.95;;
58338;SDS011;68636;52.704;6.536;2023-05-13T15:16:20;6.30;;;2.30;;
58338;SDS011;68636;52.704;6.536;2023-05-13T15:18:46;4.53;;;2.08;;
58338;SDS011;68636;52.704;6.536;2023-05-13T15:21:12;6.67;;;2.30;;
58338;SDS011;68636;52.704;6.536;2023-05-13T15:23:37;8.87;;;2.00;;
58338;SDS011;68636;52.704;6.536;2023-05-13T15:26:03;8.27;;;2.10;;
58338;SDS011;68636;52.704;6.536;2023-05-13T15:28:29;5.70;;;2.13;;
58338;SDS011;68636;52.704;6.536;2023-05-13T15:30:54;8.70;;;2.10;;